Time;durP1;ratioP1;P1;durP2;ratioP2;P2;SDS_P1;SDS_P2;PMS_P1;PMS_P2;Temp;Humidity;BMP_temperature;BMP_pressure;BME280_temperature;BME280_humidity;BME280_pressure;Samples;Min_cycle;Max_cycle;Signal;HPM_P1;HPM_P2
2021/01/13 00:00:36;;;;;;;53.55;44.13;;;16.00;99.90;;;;;;5075763;28;20432;-30
2021/01/13 00:03:02;;;;;;;55.90;45.90;;;16.00;99.90;;;;;;5076363;28;20783;-29
2021/01/13 00:05:28;;;;;;;50.15;43.25;;;16.00;99.90;;;;;;5075960;28;20039;-29
2021/01/13 00:07:54;;;;;;;51.90;42.08;;;16.00;99.90;;;;;;5056302;28;20033;-30
2021/01/13 00:10:20;;;;;;;51.53;40.95;;;16.00;99.90;;;;;;5073749;28;20037;-29
2021/01/13 00:12:46;;;;;;;49.40;40.45;;;15.90;99.90;;;;;;5075714;28;20032;-30
2021/01/13 00:15:12;;;;;;;51.25;40.92;;;15.90;99.90;;;;;;5075743;28;20046;-30
2021/01/13 00:17:45;;;;;;;48.55;39.65;;;15.90;99.90;;;;;;5074723;28;20082;-30
2021/01/13 00:20:11;;;;;;;46.65;39.03;;;15.90;99.90;;;;;;5075872;28;20028;-30
2021/01/13 00:22:37;;;;;;;47.75;39.53;;;15.90;99.90;;;;;;5075961;28;20044;-29
2021/01/13 00:25:04;;;;;;;45.70;37.97;;;15.80;99.90;;;;;;5075796;28;20032;-30
2021/01/13 00:27:33;;;;;;;50.03;37.80;;;15.80;99.90;;;;;;5074245;28;20115;-30
2021/01/13 00:29:59;;;;;;;47.10;38.45;;;15.80;99.90;;;;;;5075897;28;20032;-30
2021/01/13 00:32:25;;;;;;;44.92;37.17;;;15.80;99.90;;;;;;5075931;28;20049;-30
2021/01/13 00:34:50;;;;;;;44.08;36.65;;;15.70;99.90;;;;;;5075577;28;20025;-30
2021/01/13 00:37:16;;;;;;;44.58;37.17;;;15.70;99.90;;;;;;5075844;28;20047;-29
2021/01/13 00:39:42;;;;;;;44.72;36.35;;;15.70;99.90;;;;;;5075454;28;20063;-29
2021/01/13 00:42:08;;;;;;;43.70;36.25;;;15.70;99.90;;;;;;5075289;28;20036;-30
2021/01/13 00:44:34;;;;;;;43.38;33.95;;;15.70;99.90;;;;;;5076227;28;20362;-30
2021/01/13 00:47:00;;;;;;;43.47;35.53;;;15.60;99.90;;;;;;5075375;28;20031;-30
2021/01/13 00:49:26;;;;;;;43.83;33.58;;;15.60;99.90;;;;;;5073241;28;20032;-30
2021/01/13 00:51:52;;;;;;;44.10;34.30;;;15.60;99.90;;;;;;5075277;28;20100;-31
2021/01/13 00:54:17;;;;;;;43.50;33.60;;;15.60;99.90;;;;;;5073614;28;20029;-30
2021/01/13 00:56:48;;;;;;;40.13;33.58;;;15.60;99.90;;;;;;5075479;28;20032;-30
2021/01/13 00:59:15;;;;;;;42.88;33.60;;;15.50;99.90;;;;;;5075097;28;20025;-30
2021/01/13 01:01:42;;;;;;;40.70;33.53;;;15.50;99.90;;;;;;5075077;28;20031;-30
2021/01/13 01:04:10;;;;;;;43.45;33.30;;;15.50;99.90;;;;;;5075533;28;20028;-30
2021/01/13 01:06:36;;;;;;;40.25;33.72;;;15.50;99.90;;;;;;5075302;28;20493;-30
2021/01/13 01:09:04;;;;;;;37.78;30.92;;;15.50;99.90;;;;;;5074821;28;20070;-30
2021/01/13 01:11:34;;;;;;;;;;;15.40;99.90;;;;;;5075242;28;20039;-29
2021/01/13 01:14:00;;;;;;;35.25;30.58;;;15.40;99.90;;;;;;5074517;28;19920;-31
2021/01/13 01:16:34;;;;;;;39.25;32.92;;;15.40;99.90;;;;;;5074870;28;20055;-30
2021/01/13 01:19:00;;;;;;;39.97;32.38;;;15.40;99.90;;;;;;5075061;28;20017;-31
2021/01/13 01:21:27;;;;;;;35.03;29.40;;;15.40;99.90;;;;;;5074627;28;20028;-30
2021/01/13 01:23:53;;;;;;;37.33;30.27;;;15.40;99.90;;;;;;5072859;28;20032;-30
2021/01/13 01:26:19;;;;;;;35.03;29.67;;;15.30;99.90;;;;;;5074383;28;20032;-30
2021/01/13 01:28:45;;;;;;;37.95;30.40;;;15.30;99.90;;;;;;5074229;28;20037;-30
2021/01/13 01:31:11;;;;;;;34.05;26.83;;;15.30;99.90;;;;;;5074380;28;20048;-31
2021/01/13 01:33:37;;;;;;;34.10;28.75;;;15.30;99.90;;;;;;5074032;28;20398;-31
2021/01/13 01:36:03;;;;;;;34.67;28.13;;;15.20;99.90;;;;;;5074125;28;20032;-30
2021/01/13 01:38:29;;;;;;;32.80;27.42;;;15.20;99.90;;;;;;5074224;28;20024;-30
2021/01/13 01:41:06;;;;;;;35.95;28.40;;;15.20;99.90;;;;;;5074703;28;20096;-30
2021/01/13 01:43:31;;;;;;;34.85;27.02;;;15.20;99.90;;;;;;5073984;28;20024;-30
2021/01/13 01:45:58;;;;;;;36.00;27.90;;;15.20;99.90;;;;;;5073943;28;20033;-29
2021/01/13 01:48:33;;;;;;;35.03;28.55;;;15.20;99.90;;;;;;5074136;28;20033;-30
2021/01/13 01:51:00;;;;;;;32.92;27.52;;;15.20;99.90;;;;;;5073831;28;20032;-29
2021/01/13 01:53:58;;;;;;;34.15;27.42;;;15.10;99.90;;;;;;5073507;28;20074;-29
2021/01/13 01:56:34;;;;;;;34.80;28.13;;;15.10;99.90;;;;;;5069590;28;20426;-29
2021/01/13 01:59:05;;;;;;;32.15;26.88;;;15.10;99.90;;;;;;5073733;28;20020;-29
2021/01/13 02:01:37;;;;;;;33.20;27.45;;;15.10;99.90;;;;;;5073748;28;20082;-30
2021/01/13 02:04:29;;;;;;;32.05;26.35;;;15.10;99.90;;;;;;5073305;28;20036;-30
2021/01/13 02:06:58;;;;;;;33.42;27.85;;;15.00;99.90;;;;;;5073589;28;20090;-30
2021/01/13 02:09:30;;;;;;;32.63;27.50;;;15.00;99.90;;;;;;5073771;28;20029;-30
2021/01/13 02:11:57;;;;;;;33.35;27.15;;;15.00;99.90;;;;;;5073759;28;20036;-30
2021/01/13 02:14:25;;;;;;;33.58;26.45;;;15.00;99.90;;;;;;5073668;28;20520;-30
2021/01/13 02:16:52;;;;;;;31.42;25.83;;;15.00;99.90;;;;;;5073193;28;20112;-30
2021/01/13 02:19:50;;;;;;;32.85;26.67;;;14.90;99.90;;;;;;5073692;28;20466;-30
2021/01/13 02:22:19;;;;;;;34.05;26.65;;;14.90;99.90;;;;;;5073462;28;20050;-30
2021/01/13 02:25:12;;;;;;;33.05;27.15;;;14.90;99.90;;;;;;5073742;28;20437;-30
2021/01/13 02:28:03;;;;;;;30.17;25.08;;;14.90;99.90;;;;;;5073685;28;20493;-30
2021/01/13 02:30:42;;;;;;;30.90;25.38;;;14.90;99.90;;;;;;5073419;28;20032;-30
2021/01/13 02:33:22;;;;;;;32.05;26.40;;;14.90;99.90;;;;;;5073182;28;20193;-30
2021/01/13 02:36:15;;;;;;;29.52;23.33;;;14.80;99.90;;;;;;5073119;28;20017;-30
2021/01/13 02:38:42;;;;;;;30.80;24.20;;;14.80;99.90;;;;;;5067231;28;20044;-30
2021/01/13 02:41:15;;;;;;;28.70;24.00;;;14.80;99.90;;;;;;5073406;28;20104;-30
2021/01/13 02:44:03;;;;;;;28.52;22.77;;;14.80;99.90;;;;;;5073097;28;20035;-30
2021/01/13 02:46:49;;;;;;;29.10;23.48;;;14.80;99.90;;;;;;5073413;28;20028;-30
2021/01/13 02:49:23;;;;;;;27.43;22.40;;;14.80;99.90;;;;;;5072567;28;20021;-30
2021/01/13 02:51:55;;;;;;;27.02;21.95;;;14.70;99.90;;;;;;5072260;28;20462;-30
2021/01/13 02:54:41;;;;;;;31.27;23.45;;;14.70;99.90;;;;;;5071901;28;20047;-30
2021/01/13 02:57:17;;;;;;;25.48;22.25;;;14.70;99.90;;;;;;5072772;28;20021;-30
2021/01/13 02:59:49;;;;;;;26.77;23.17;;;14.70;99.90;;;;;;5073170;28;20425;-35
2021/01/13 03:02:17;;;;;;;25.42;21.08;;;14.70;99.90;;;;;;5072574;28;20509;-30
2021/01/13 03:04:43;;;;;;;28.33;22.52;;;14.70;99.90;;;;;;5073487;28;20020;-30
2021/01/13 03:07:13;;;;;;;24.27;20.90;;;14.60;99.90;;;;;;5073091;28;20033;-30
2021/01/13 03:09:47;;;;;;;27.30;21.88;;;14.60;99.90;;;;;;5073056;28;20483;-30
2021/01/13 03:12:24;;;;;;;26.08;22.35;;;14.60;99.90;;;;;;5071840;28;20033;-31
2021/01/13 03:14:57;;;;;;;26.48;20.92;;;14.60;99.90;;;;;;5077074;28;20043;-30
2021/01/13 03:17:29;;;;;;;30.75;23.42;;;14.60;99.90;;;;;;5077432;28;20459;-29
2021/01/13 03:20:19;;;;;;;25.15;21.75;;;14.60;99.90;;;;;;5076962;28;20036;-29
2021/01/13 03:23:15;;;;;;;24.73;20.60;;;14.50;99.90;;;;;;5076578;28;20028;-29
2021/01/13 03:25:52;;;;;;;26.63;20.63;;;14.60;99.90;;;;;;5077146;28;20024;-29
2021/01/13 03:28:22;;;;;;;25.90;20.92;;;14.50;99.90;;;;;;5076564;28;20036;-29
2021/01/13 03:30:50;;;;;;;24.33;20.13;;;14.50;99.90;;;;;;5077077;28;20033;-30
2021/01/13 03:33:15;;;;;;;26.05;21.20;;;14.50;99.90;;;;;;5076686;28;20036;-29
2021/01/13 03:35:43;;;;;;;24.60;21.05;;;14.50;99.90;;;;;;5077249;28;20032;-30
2021/01/13 03:38:17;;;;;;;23.50;19.65;;;14.50;99.90;;;;;;5076638;28;20371;-30
2021/01/13 03:40:45;;;;;;;24.77;21.13;;;14.50;99.90;;;;;;5076918;28;20032;-30
2021/01/13 03:43:19;;;;;;;26.75;21.50;;;14.50;99.90;;;;;;5076670;28;20028;-30
2021/01/13 03:45:54;;;;;;;24.20;20.02;;;14.50;99.90;;;;;;5076814;28;20031;-30
2021/01/13 03:48:47;;;;;;;25.23;21.05;;;14.40;99.90;;;;;;5076352;28;20025;-30
2021/01/13 03:51:48;;;;;;;24.35;20.50;;;14.40;99.90;;;;;;5076635;28;20496;-30
2021/01/13 03:54:15;;;;;;;24.40;20.58;;;14.40;99.90;;;;;;5075223;28;20038;-30
2021/01/13 03:57:02;;;;;;;23.80;19.15;;;14.40;99.90;;;;;;5076508;28;20047;-30
2021/01/13 03:59:51;;;;;;;24.00;19.50;;;14.40;99.90;;;;;;5075035;28;20024;-30
2021/01/13 04:02:20;;;;;;;21.02;18.13;;;14.40;99.90;;;;;;5076459;28;20332;-31
2021/01/13 04:05:07;;;;;;;24.73;19.75;;;14.40;99.90;;;;;;5075992;28;20104;-30
2021/01/13 04:07:43;;;;;;;24.30;19.02;;;14.40;99.90;;;;;;5076650;28;20020;-30
2021/01/13 04:10:18;;;;;;;22.15;18.50;;;14.40;99.90;;;;;;5076320;28;20415;-30
2021/01/13 04:13:06;;;;;;;22.23;18.27;;;14.40;99.90;;;;;;5074943;28;20108;-30
2021/01/13 04:15:37;;;;;;;22.25;17.88;;;14.40;99.90;;;;;;5061839;28;20086;-30
2021/01/13 04:18:09;;;;;;;22.48;18.50;;;14.30;99.90;;;;;;5075771;28;20386;-30
2021/01/13 04:20:36;;;;;;;22.77;18.98;;;14.40;99.90;;;;;;5076420;28;20044;-30
2021/01/13 04:23:04;;;;;;;21.35;17.23;;;14.40;99.90;;;;;;5075507;28;20058;-30
2021/01/13 04:25:30;;;;;;;22.60;18.92;;;14.30;99.90;;;;;;5075911;28;20137;-30
2021/01/13 04:27:56;;;;;;;24.42;18.48;;;14.30;99.90;;;;;;5075622;28;20136;-30
2021/01/13 04:30:26;;;;;;;20.90;17.98;;;14.30;99.90;;;;;;5075951;28;20082;-30
2021/01/13 04:32:57;;;;;;;22.17;18.00;;;14.30;99.90;;;;;;5075564;28;20543;-30
2021/01/13 04:35:25;;;;;;;23.10;18.25;;;14.30;99.90;;;;;;5055788;28;20025;-30
2021/01/13 04:37:53;;;;;;;21.90;17.83;;;14.30;99.90;;;;;;5072894;28;20025;-30
2021/01/13 04:40:38;;;;;;;23.30;18.15;;;14.30;99.90;;;;;;5075818;28;20036;-30
2021/01/13 04:43:09;;;;;;;20.90;17.73;;;14.20;99.90;;;;;;5075073;28;20028;-30
2021/01/13 04:45:46;;;;;;;20.35;16.50;;;14.20;99.90;;;;;;5074128;28;20445;-30
2021/01/13 04:48:14;;;;;;;19.75;16.42;;;14.20;99.90;;;;;;5074685;28;20166;-30
2021/01/13 04:50:47;;;;;;;22.10;16.85;;;14.20;99.90;;;;;;5075170;28;20119;-30
2021/01/13 04:53:15;;;;;;;20.00;16.25;;;14.20;99.90;;;;;;5075398;28;20036;-30
2021/01/13 04:55:50;;;;;;;20.40;16.42;;;14.20;99.90;;;;;;5075601;28;20051;-30
2021/01/13 04:58:31;;;;;;;19.13;15.75;;;14.20;99.90;;;;;;5074843;28;20028;-30
2021/01/13 05:01:31;;;;;;;19.15;15.80;;;14.20;99.90;;;;;;5074859;28;20025;-30
2021/01/13 05:04:00;;;;;;;20.80;16.70;;;14.20;99.90;;;;;;5075108;28;20021;-30
2021/01/13 05:06:49;;;;;;;18.73;16.00;;;14.20;99.90;;;;;;5075234;28;20377;-30
2021/01/13 05:09:17;;;;;;;18.23;14.88;;;14.10;99.90;;;;;;5074316;28;20024;-30
2021/01/13 05:11:48;;;;;;;20.30;16.08;;;14.10;99.90;;;;;;5074778;28;20492;-30
2021/01/13 05:14:15;;;;;;;17.40;14.98;;;14.10;99.90;;;;;;5074252;28;20021;-30
2021/01/13 05:16:50;;;;;;;18.45;15.13;;;14.10;99.90;;;;;;5075336;28;20430;-31
2021/01/13 05:19:21;;;;;;;17.15;14.02;;;14.10;99.90;;;;;;5074752;28;20025;-31
2021/01/13 05:21:54;;;;;;;19.05;15.27;;;14.10;99.90;;;;;;5075031;28;20476;-31
2021/01/13 05:24:21;;;;;;;15.63;13.68;;;14.10;99.90;;;;;;5074217;28;20028;-31
2021/01/13 05:27:01;;;;;;;17.88;13.00;;;14.10;99.90;;;;;;5074845;28;20025;-31
2021/01/13 05:29:27;;;;;;;15.43;13.68;;;14.10;99.90;;;;;;5066498;28;20063;-31
2021/01/13 05:31:54;;;;;;;17.08;12.93;;;14.00;99.90;;;;;;5074419;28;20080;-31
2021/01/13 05:34:21;;;;;;;14.32;12.65;;;14.00;99.90;;;;;;5073423;28;20067;-31
2021/01/13 05:37:07;;;;;;;17.20;13.60;;;14.00;99.90;;;;;;5074006;28;20489;-31
2021/01/13 05:39:34;;;;;;;16.52;13.27;;;14.00;99.90;;;;;;5073719;28;20043;-31
2021/01/13 05:42:04;;;;;;;15.75;13.23;;;14.00;99.90;;;;;;5074235;28;20016;-31
2021/01/13 05:44:31;;;;;;;16.45;13.07;;;14.00;99.90;;;;;;5074148;28;20043;-30
2021/01/13 05:47:04;;;;;;;15.70;13.05;;;14.00;99.90;;;;;;5074642;28;20411;-30
2021/01/13 05:49:31;;;;;;;19.17;14.57;;;13.90;99.90;;;;;;5074393;28;20481;-30
2021/01/13 05:52:07;;;;;;;16.75;12.65;;;14.00;99.90;;;;;;5074044;28;20103;-30
2021/01/13 05:54:36;;;;;;;15.15;13.20;;;13.90;99.90;;;;;;5074277;28;20028;-31
2021/01/13 05:57:04;;;;;;;16.30;13.00;;;13.90;99.90;;;;;;5073992;28;20027;-30
2021/01/13 05:59:31;;;;;;;16.17;13.52;;;13.90;99.90;;;;;;5074186;28;20027;-30
2021/01/13 06:01:59;;;;;;;16.27;12.95;;;13.90;99.90;;;;;;5074105;28;20104;-30
2021/01/13 06:04:26;;;;;;;16.45;12.80;;;13.90;99.90;;;;;;5073983;28;20051;-30
2021/01/13 06:07:05;;;;;;;16.13;12.17;;;13.90;99.90;;;;;;5073679;28;20078;-30
2021/01/13 06:09:40;;;;;;;16.88;13.07;;;13.90;99.90;;;;;;5073301;28;20036;-30
2021/01/13 06:12:12;;;;;;;16.38;12.52;;;13.90;99.90;;;;;;5073767;28;20036;-30
2021/01/13 06:14:38;;;;;;;16.38;13.10;;;13.90;99.90;;;;;;5074057;28;20119;-30
2021/01/13 06:17:05;;;;;;;16.33;12.65;;;13.90;99.90;;;;;;5073723;28;20024;-30
2021/01/13 06:19:32;;;;;;;14.20;12.03;;;13.80;99.90;;;;;;5073559;28;20462;-30
2021/01/13 06:22:11;;;;;;;15.13;12.68;;;13.90;99.90;;;;;;5073340;28;20126;-30
2021/01/13 06:24:37;;;;;;;15.35;12.02;;;13.80;99.90;;;;;;5066166;28;20596;-30
2021/01/13 06:27:19;;;;;;;15.50;12.32;;;13.80;99.90;;;;;;5073422;28;20025;-30
2021/01/13 06:30:03;;;;;;;14.40;11.55;;;13.80;99.90;;;;;;5073264;28;20123;-31
2021/01/13 06:32:34;;;;;;;14.05;11.70;;;13.80;99.90;;;;;;5073495;28;20052;-30
2021/01/13 06:35:38;;;;;;;15.82;12.73;;;13.80;99.90;;;;;;5073266;28;20028;-30
2021/01/13 06:38:30;;;;;;;15.13;11.98;;;13.80;99.90;;;;;;5053420;28;20017;-30
2021/01/13 06:41:00;;;;;;;14.00;11.48;;;13.80;99.90;;;;;;5054602;28;20375;-30
2021/01/13 06:43:26;;;;;;;13.27;11.50;;;13.70;99.90;;;;;;5073190;28;20032;-31
2021/01/13 06:45:52;;;;;;;15.00;12.48;;;13.70;99.90;;;;;;5072285;28;20029;-30
2021/01/13 06:48:25;;;;;;;15.00;11.73;;;13.70;99.90;;;;;;5070832;28;20079;-30
2021/01/13 06:51:01;;;;;;;15.25;11.50;;;13.70;99.90;;;;;;5071879;28;20031;-31
2021/01/13 06:53:35;;;;;;;14.50;12.60;;;13.70;99.90;;;;;;5072075;28;20040;-36
2021/01/13 06:56:09;;;;;;;13.95;11.63;;;13.70;99.90;;;;;;5072538;28;20103;-37
2021/01/13 06:58:36;;;;;;;14.25;12.23;;;13.70;99.90;;;;;;5072482;28;20485;-37
2021/01/13 07:01:04;;;;;;;15.75;12.20;;;13.70;99.90;;;;;;5072002;28;20021;-37
2021/01/13 07:03:31;;;;;;;16.00;11.93;;;13.70;99.90;;;;;;5072835;28;20045;-37
2021/01/13 07:06:00;;;;;;;14.75;12.85;;;13.70;99.90;;;;;;5070140;28;20086;-38
2021/01/13 07:08:26;;;;;;;14.25;12.38;;;13.70;99.90;;;;;;5076128;28;20482;-37
2021/01/13 07:11:04;;;;;;;16.33;12.95;;;13.70;99.90;;;;;;5092482;28;20062;-37
2021/01/13 07:13:33;;;;;;;18.05;13.13;;;13.70;99.90;;;;;;5073014;28;20064;-37
2021/01/13 07:16:01;;;;;;;15.00;12.73;;;13.70;99.90;;;;;;5071539;28;20059;-37
2021/01/13 07:18:28;;;;;;;16.85;12.32;;;13.70;99.90;;;;;;5072247;28;20021;-37
2021/01/13 07:20:54;;;;;;;14.55;12.25;;;13.70;99.90;;;;;;5072052;28;20118;-38
2021/01/13 07:23:21;;;;;;;14.77;12.05;;;13.70;99.90;;;;;;5072128;28;20063;-37
2021/01/13 07:25:50;;;;;;;15.73;12.20;;;13.70;99.90;;;;;;5072285;28;20029;-38
2021/01/13 07:28:17;;;;;;;16.15;13.13;;;13.70;99.90;;;;;;5071493;28;20056;-39
2021/01/13 07:30:44;;;;;;;17.10;12.98;;;13.70;99.90;;;;;;5071172;28;20029;-36
2021/01/13 07:33:12;;;;;;;15.55;13.60;;;13.70;99.90;;;;;;5069676;28;20105;-39
2021/01/13 07:35:48;;;;;;;15.43;11.88;;;13.70;99.90;;;;;;5070137;28;20102;-38
2021/01/13 07:38:20;;;;;;;15.20;11.85;;;13.70;99.90;;;;;;5069644;28;20071;-38
2021/01/13 07:40:55;;;;;;;14.15;11.75;;;13.70;99.90;;;;;;5070450;28;20142;-38
2021/01/13 07:43:59;;;;;;;16.73;12.52;;;13.70;99.90;;;;;;5065534;28;20063;-38
2021/01/13 07:46:31;;;;;;;15.20;11.95;;;13.70;99.90;;;;;;5055564;28;20045;-38
2021/01/13 07:49:21;;;;;;;14.82;12.05;;;13.80;99.90;;;;;;5066289;28;20103;-36
2021/01/13 07:51:48;;;;;;;14.57;12.07;;;13.80;99.90;;;;;;5067266;28;20021;-37
2021/01/13 07:54:35;;;;;;;15.15;11.35;;;13.90;99.90;;;;;;5067622;28;20047;-38
2021/01/13 07:57:07;;;;;;;13.90;11.20;;;13.80;99.90;;;;;;5070141;28;20028;-36
2021/01/13 08:00:06;;;;;;;14.63;11.50;;;13.90;99.90;;;;;;5073593;28;20032;-36
2021/01/13 08:02:53;;;;;;;14.05;12.15;;;13.90;99.90;;;;;;5067949;28;20038;-38
2021/01/13 08:05:47;;;;;;;17.10;13.55;;;13.90;99.90;;;;;;5074024;28;20017;-38
2021/01/13 08:08:13;;;;;;;15.95;12.40;;;13.90;99.90;;;;;;5074595;28;20028;-37
2021/01/13 08:10:40;;;;;;;17.27;12.73;;;13.90;99.90;;;;;;5074252;28;20025;-37
2021/01/13 08:13:40;;;;;;;16.95;13.35;;;13.90;99.90;;;;;;5071393;28;20056;-37
2021/01/13 08:16:30;;;;;;;16.38;13.27;;;13.90;99.90;;;;;;5064665;28;20163;-36
2021/01/13 08:19:20;;;;;;;16.13;12.57;;;14.00;99.90;;;;;;5074425;28;20115;-37
2021/01/13 08:22:04;;;;;;;16.52;12.82;;;14.00;99.90;;;;;;5069466;28;20023;-37
2021/01/13 08:24:31;;;;;;;16.45;12.95;;;14.10;99.90;;;;;;5068961;28;20094;-37
2021/01/13 08:27:02;;;;;;;14.55;12.52;;;14.10;99.90;;;;;;5072587;28;20078;-37
2021/01/13 08:29:35;;;;;;;17.30;14.15;;;14.10;99.90;;;;;;5069862;28;20406;-38
2021/01/13 08:32:09;;;;;;;17.70;13.50;;;14.10;99.90;;;;;;5071040;28;20098;-38
2021/01/13 08:34:50;;;;;;;19.02;14.80;;;14.10;99.90;;;;;;5073243;28;20534;-37
2021/01/13 08:37:16;;;;;;;19.40;15.98;;;14.10;99.90;;;;;;5073797;28;20378;-38
2021/01/13 08:39:42;;;;;;;18.85;15.40;;;14.20;99.90;;;;;;5073817;28;20024;-37
2021/01/13 08:42:24;;;;;;;21.42;16.67;;;14.20;99.90;;;;;;5074571;28;20466;-37
2021/01/13 08:44:54;;;;;;;22.30;17.30;;;14.10;99.90;;;;;;5074128;28;20028;-38
2021/01/13 08:47:22;;;;;;;21.77;17.30;;;14.20;99.90;;;;;;5073108;28;20024;-38
2021/01/13 08:49:49;;;;;;;21.83;15.90;;;14.20;99.90;;;;;;5074479;28;20075;-38
2021/01/13 08:52:22;;;;;;;21.77;17.05;;;14.20;99.90;;;;;;5074978;28;20701;-38
2021/01/13 08:54:48;;;;;;;22.55;17.67;;;14.20;99.90;;;;;;5074601;28;20108;-37
2021/01/13 08:57:14;;;;;;;21.80;15.90;;;14.30;99.90;;;;;;5074341;28;20103;-37
2021/01/13 08:59:47;;;;;;;22.23;17.85;;;14.30;99.90;;;;;;5074612;28;20021;-38
2021/01/13 09:02:21;;;;;;;21.90;17.48;;;14.30;99.90;;;;;;5074386;28;20498;-37
2021/01/13 09:05:00;;;;;;;22.67;17.38;;;14.30;99.90;;;;;;5074069;28;20029;-37
2021/01/13 09:07:28;;;;;;;20.60;16.60;;;14.30;99.90;;;;;;5073562;28;20032;-38
2021/01/13 09:10:00;;;;;;;21.67;17.27;;;14.30;99.90;;;;;;5072794;28;20513;-38
2021/01/13 09:12:38;;;;;;;21.45;17.83;;;14.40;99.90;;;;;;5073777;28;20032;-38
2021/01/13 09:15:07;;;;;;;25.02;18.88;;;14.40;99.90;;;;;;5074192;28;20021;-38
2021/01/13 09:17:37;;;;;;;21.52;17.80;;;14.40;99.90;;;;;;5074031;28;20111;-37
2021/01/13 09:20:13;;;;;;;22.05;17.77;;;14.40;99.90;;;;;;5074063;28;20039;-38
2021/01/13 09:23:03;;;;;;;23.33;18.80;;;14.40;99.90;;;;;;5073814;28;20020;-38
2021/01/13 09:25:31;;;;;;;24.90;18.83;;;14.50;99.90;;;;;;5073540;28;20743;-36
2021/01/13 09:28:02;;;;;;;23.67;17.50;;;14.50;99.90;;;;;;5073757;28;20546;-36
2021/01/13 09:30:30;;;;;;;21.23;16.75;;;14.50;99.90;;;;;;5073987;28;20425;-35
2021/01/13 09:32:58;;;;;;;24.42;18.50;;;14.50;99.90;;;;;;5073177;28;20062;-38
2021/01/13 09:35:26;;;;;;;24.25;18.38;;;14.50;99.90;;;;;;5073681;28;20024;-37
2021/01/13 09:37:54;;;;;;;23.13;17.05;;;14.60;99.90;;;;;;5073509;28;20032;-37
2021/01/13 09:40:22;;;;;;;22.23;16.75;;;14.60;99.90;;;;;;5073542;28;20040;-37
2021/01/13 09:42:56;;;;;;;21.23;17.27;;;14.60;99.90;;;;;;5073663;28;20020;-38
2021/01/13 09:45:23;;;;;;;21.33;15.95;;;14.60;99.90;;;;;;5073516;28;20077;-37
2021/01/13 09:47:49;;;;;;;23.30;17.60;;;14.60;99.90;;;;;;5073028;28;20474;-38
2021/01/13 09:50:21;;;;;;;22.25;17.85;;;14.60;99.90;;;;;;5072914;28;20040;-38
2021/01/13 09:52:47;;;;;;;23.52;16.45;;;14.60;99.90;;;;;;5073212;28;20666;-37
2021/01/13 09:55:14;;;;;;;30.40;23.20;;;14.60;99.90;;;;;;5073419;28;20024;-37
2021/01/13 09:57:40;;;;;;;50.37;37.27;;;14.60;99.90;;;;;;5073776;28;20026;-36
2021/01/13 10:00:08;;;;;;;41.05;31.98;;;14.50;99.90;;;;;;5073390;28;20254;-38
2021/01/13 10:02:34;;;;;;;42.60;32.53;;;14.50;99.90;;;;;;5073220;28;20099;-38
2021/01/13 10:05:00;;;;;;;41.53;32.58;;;14.50;99.90;;;;;;5073289;28;20111;-39
2021/01/13 10:07:31;;;;;;;38.95;28.60;;;14.50;99.90;;;;;;5073403;28;20506;-38
2021/01/13 10:09:58;;;;;;;40.33;31.40;;;14.50;99.90;;;;;;5073534;28;20090;-38
2021/01/13 10:12:39;;;;;;;34.15;26.10;;;14.50;99.90;;;;;;5073237;28;20028;-38
2021/01/13 10:15:08;;;;;;;36.15;26.60;;;14.60;99.90;;;;;;5073150;28;20032;-38
2021/01/13 10:17:34;;;;;;;32.70;21.50;;;14.70;99.90;;;;;;5073416;28;20359;-37
2021/01/13 10:20:18;;;;;;;33.13;20.85;;;14.70;99.90;;;;;;5073414;28;20097;-36
2021/01/13 10:22:45;;;;;;;28.17;19.60;;;14.70;99.90;;;;;;5071538;28;20028;-36
2021/01/13 10:25:22;;;;;;;23.67;16.83;;;14.80;99.90;;;;;;5072552;28;20020;-37
2021/01/13 10:27:48;;;;;;;25.17;14.23;;;14.80;99.90;;;;;;5072770;28;20029;-37
2021/01/13 10:30:14;;;;;;;21.63;12.98;;;14.90;99.90;;;;;;5072810;28;20485;-37
2021/01/13 10:32:54;;;;;;;16.65;11.95;;;14.90;99.90;;;;;;5072008;28;20045;-36
2021/01/13 10:35:22;;;;;;;19.42;12.77;;;14.90;99.90;;;;;;5072327;28;20436;-37
2021/01/13 10:37:52;;;;;;;;;;;14.90;99.90;;;;;;5073487;28;20035;-36
2021/01/13 10:40:19;;;;;;;23.40;11.43;;;15.00;99.90;;;;;;5072461;28;19905;-36
2021/01/13 10:42:55;;;;;;;17.20;12.45;;;15.10;99.90;;;;;;5072726;28;20467;-37
2021/01/13 10:45:23;;;;;;;22.88;13.68;;;15.10;99.90;;;;;;5072553;28;20039;-37
2021/01/13 10:48:00;;;;;;;20.67;12.25;;;15.10;99.90;;;;;;5072645;28;20027;-36
2021/01/13 10:50:28;;;;;;;14.07;11.20;;;15.20;99.90;;;;;;5072226;28;20490;-37
2021/01/13 10:52:59;;;;;;;14.98;11.30;;;15.20;99.90;;;;;;5072164;28;20024;-37
2021/01/13 10:55:28;;;;;;;276.70;206.45;;;15.30;99.90;;;;;;5072109;28;20021;-37
2021/01/13 10:57:54;;;;;;;115.32;83.38;;;15.40;99.90;;;;;;5072430;28;20024;-37
2021/01/13 11:00:24;;;;;;;80.05;58.10;;;15.50;99.90;;;;;;5072117;28;20063;-38
2021/01/13 11:02:54;;;;;;;47.53;34.53;;;15.50;99.90;;;;;;5072157;28;20028;-38
2021/01/13 11:05:21;;;;;;;39.92;30.95;;;15.60;99.90;;;;;;5072135;28;20028;-38
2021/01/13 11:07:51;;;;;;;29.45;21.90;;;15.70;99.90;;;;;;5072245;28;20023;-37
2021/01/13 11:10:20;;;;;;;24.80;18.17;;;15.80;99.90;;;;;;5071052;28;20021;-37
2021/01/13 11:12:48;;;;;;;21.20;15.55;;;16.00;99.90;;;;;;5061307;28;20024;-36
2021/01/13 11:15:14;;;;;;;21.80;14.30;;;16.10;99.90;;;;;;5070362;28;20017;-36
2021/01/13 11:17:40;;;;;;;17.25;12.38;;;16.20;99.90;;;;;;5063349;28;20017;-36
2021/01/13 11:20:08;;;;;;;17.73;11.68;;;16.30;99.90;;;;;;5071674;28;20107;-37
2021/01/13 11:22:55;;;;;;;19.33;10.43;;;16.40;99.90;;;;;;5072122;28;20021;-37
2021/01/13 11:25:30;;;;;;;11.95;8.93;;;16.50;99.90;;;;;;5071843;28;20397;-37
2021/01/13 11:28:04;;;;;;;16.00;9.85;;;16.60;99.90;;;;;;5071626;28;20086;-38
2021/01/13 11:30:32;;;;;;;16.95;9.60;;;16.70;99.90;;;;;;5071792;28;20029;-37
2021/01/13 11:33:00;;;;;;;32.83;23.15;;;16.80;99.90;;;;;;5071581;28;20048;-37
2021/01/13 11:35:26;;;;;;;27.13;18.63;;;16.90;99.90;;;;;;5075786;28;20359;-37
2021/01/13 11:38:23;;;;;;;22.58;13.07;;;17.10;99.90;;;;;;5075866;28;20054;-37
2021/01/13 11:41:26;;;;;;;18.63;11.52;;;17.30;99.90;;;;;;5075569;28;20016;-37
2021/01/13 11:44:10;;;;;;;12.93;7.85;;;17.40;99.90;;;;;;5075765;28;20033;-37
2021/01/13 11:46:48;;;;;;;10.73;7.32;;;17.50;99.90;;;;;;5075885;28;20032;-37
2021/01/13 11:49:17;;;;;;;12.65;7.90;;;17.50;99.90;;;;;;5075711;28;20017;-37
2021/01/13 11:51:47;;;;;;;13.68;8.65;;;17.70;99.90;;;;;;5075484;28;20052;-37
2021/01/13 11:54:30;;;;;;;11.98;8.13;;;17.80;99.90;;;;;;5075397;28;20035;-36
2021/01/13 11:57:19;;;;;;;12.32;8.13;;;17.70;99.90;;;;;;5075550;28;20016;-37
2021/01/13 11:59:46;;;;;;;14.85;9.50;;;17.90;99.90;;;;;;5071767;28;20564;-36
2021/01/13 12:02:24;;;;;;;14.50;7.95;;;18.00;99.90;;;;;;5075414;28;20408;-36
2021/01/13 12:04:50;;;;;;;;;;;18.20;99.90;;;;;;5091097;28;20092;-36
2021/01/13 12:07:16;;;;;;;15.18;10.35;;;18.20;99.90;;;;;;5075317;28;20014;-36
2021/01/13 12:09:42;;;;;;;16.45;11.88;;;18.30;99.90;;;;;;5074171;28;20379;-37
2021/01/13 12:12:09;;;;;;;11.68;8.73;;;18.50;99.90;;;;;;5073812;28;20535;-36
2021/01/13 12:14:55;;;;;;;13.82;9.40;;;18.60;99.90;;;;;;5076068;28;20029;-37
2021/01/13 12:17:22;;;;;;;9.77;7.30;;;18.70;99.90;;;;;;5069781;28;20036;-35
2021/01/13 12:19:47;;;;;;;18.40;11.20;;;18.90;99.90;;;;;;5070177;28;20750;-35
2021/01/13 12:22:13;;;;;;;17.48;12.05;;;19.10;99.90;;;;;;5075567;28;20035;-35
2021/01/13 12:24:43;;;;;;;17.98;12.02;;;19.30;99.90;;;;;;5075141;28;20030;-35
2021/01/13 12:27:28;;;;;;;16.77;11.35;;;19.50;99.90;;;;;;5074272;28;20052;-35
2021/01/13 12:30:07;;;;;;;20.58;11.32;;;19.80;99.90;;;;;;5075397;28;20025;-35
2021/01/13 12:32:33;;;;;;;23.67;10.95;;;20.40;99.90;;;;;;5075087;28;20528;-34
2021/01/13 12:34:59;;;;;;;18.30;10.93;;;21.80;99.90;;;;;;5075149;28;20029;-36
2021/01/13 12:37:25;;;;;;;13.40;8.45;;;24.10;99.90;;;;;;5075282;28;20054;-34
2021/01/13 12:40:00;;;;;;;13.13;6.85;;;26.10;99.90;;;;;;5075193;28;20021;-34
2021/01/13 12:42:33;;;;;;;8.60;5.28;;;27.80;99.90;;;;;;5074893;28;20109;-34
2021/01/13 12:45:00;;;;;;;8.48;5.45;;;29.10;99.90;;;;;;5073655;28;20085;-34
2021/01/13 12:47:29;;;;;;;6.57;4.13;;;30.00;99.90;;;;;;5075050;28;20085;-34
2021/01/13 12:49:56;;;;;;;18.60;10.93;;;30.40;99.90;;;;;;5074957;28;20107;-34
2021/01/13 12:52:22;;;;;;;12.93;9.47;;;30.10;99.90;;;;;;5074784;28;20043;-36
2021/01/13 12:54:48;;;;;;;21.45;10.50;;;29.00;99.90;;;;;;5074657;28;20028;-36